sensor_id;sensor_type;location;lat;lon;timestamp;pressure;altitude;pressure_sealevel;temperature;humidity
19553;BME280;9420;50.876;7.012;2023-01-31T00:01:33;102063.59;;;13.89;85.50
19553;BME280;9420;50.876;7.012;2023-01-31T00:04:03;102065.94;;;14.43;83.20
19553;BME280;9420;50.876;7.012;2023-01-31T00:06:33;102071.28;;;14.01;85.43
19553;BME280;9420;50.876;7.012;2023-01-31T00:09:03;102063.91;;;14.14;84.80
19553;BME280;9420;50.876;7.012;2023-01-31T00:11:31;102068.19;;;13.81;86.24
19553;BME280;9420;50.876;7.012;2023-01-31T00:14:01;102063.13;;;14.10;83.59
19553;BME280;9420;50.876;7.012;2023-01-31T00:16:29;102079.22;;;14.01;85.57
19553;BME280;9420;50.876;7.012;2023-01-31T00:18:58;102077.00;;;13.39;86.78
19553;BME280;9420;50.876;7.012;2023-01-31T00:21:28;102072.88;;;14.08;85.20
19553;BME280;9420;50.876;7.012;2023-01-31T00:23:57;102070.03;;;12.88;89.99
19553;BME280;9420;50.876;7.012;2023-01-31T00:26:27;102072.84;;;13.27;90.54
19553;BME280;9420;50.876;7.012;2023-01-31T00:28:57;102075.91;;;13.50;89.38
19553;BME280;9420;50.876;7.012;2023-01-31T00:31:26;102069.44;;;13.21;89.62
19553;BME280;9420;50.876;7.012;2023-01-31T00:33:58;102074.44;;;13.36;88.65
19553;BME280;9420;50.876;7.012;2023-01-31T00:36:29;102060.59;;;13.22;90.14
19553;BME280;9420;50.876;7.012;2023-01-31T00:39:00;102066.38;;;12.93;92.03
19553;BME280;9420;50.876;7.012;2023-01-31T00:41:29;102069.75;;;13.50;89.07
19553;BME280;9420;50.876;7.012;2023-01-31T00:43:57;102066.63;;;13.30;89.78
19553;BME280;9420;50.876;7.012;2023-01-31T00:46:24;102070.28;;;13.23;91.56
19553;BME280;9420;50.876;7.012;2023-01-31T00:48:53;102054.91;;;12.96;92.56
19553;BME280;9420;50.876;7.012;2023-01-31T00:51:24;102061.75;;;13.07;92.16
19553;BME280;9420;50.876;7.012;2023-01-31T00:53:52;102056.22;;;13.21;91.05
19553;BME280;9420;50.876;7.012;2023-01-31T00:56:22;102054.72;;;12.56;94.91
19553;BME280;9420;50.876;7.012;2023-01-31T00:58:51;102052.78;;;13.17;91.87
19553;BME280;9420;50.876;7.012;2023-01-31T01:01:21;102057.78;;;12.82;92.03
19553;BME280;9420;50.876;7.012;2023-01-31T01:03:48;102061.63;;;12.64;93.63
19553;BME280;9420;50.876;7.012;2023-01-31T01:06:16;102068.00;;;12.51;92.63
19553;BME280;9420;50.876;7.012;2023-01-31T01:08:45;102071.69;;;12.41;93.61
19553;BME280;9420;50.876;7.012;2023-01-31T01:11:16;102071.38;;;12.59;94.99
19553;BME280;9420;50.876;7.012;2023-01-31T01:13:44;102074.50;;;12.83;91.68
19553;BME280;9420;50.876;7.012;2023-01-31T01:16:15;102068.34;;;12.84;93.39
19553;BME280;9420;50.876;7.012;2023-01-31T01:18:43;102083.44;;;12.19;94.54
19553;BME280;9420;50.876;7.012;2023-01-31T01:21:15;102070.66;;;13.02;92.86
19553;BME280;9420;50.876;7.012;2023-01-31T01:23:44;102071.72;;;13.39;90.67
19553;BME280;9420;50.876;7.012;2023-01-31T01:26:14;102071.84;;;13.33;89.36
19553;BME280;9420;50.876;7.012;2023-01-31T01:28:41;102079.69;;;12.89;91.20
19553;BME280;9420;50.876;7.012;2023-01-31T01:31:11;102077.72;;;13.00;92.03
19553;BME280;9420;50.876;7.012;2023-01-31T01:33:38;102068.53;;;13.22;92.36
19553;BME280;9420;50.876;7.012;2023-01-31T01:36:08;102068.00;;;13.02;91.36
19553;BME280;9420;50.876;7.012;2023-01-31T01:38:39;102067.94;;;13.52;88.97
19553;BME280;9420;50.876;7.012;2023-01-31T01:41:09;102077.91;;;13.39;90.34
19553;BME280;9420;50.876;7.012;2023-01-31T01:43:43;102074.19;;;13.89;87.21
19553;BME280;9420;50.876;7.012;2023-01-31T01:46:14;102074.94;;;13.54;86.98
19553;BME280;9420;50.876;7.012;2023-01-31T01:48:45;102075.25;;;13.82;86.65
19553;BME280;9420;50.876;7.012;2023-01-31T01:51:16;102075.31;;;13.35;87.38
19553;BME280;9420;50.876;7.012;2023-01-31T01:53:49;102081.97;;;13.57;87.90
19553;BME280;9420;50.876;7.012;2023-01-31T01:56:25;102074.91;;;13.56;87.07
19553;BME280;9420;50.876;7.012;2023-01-31T01:59:01;102065.66;;;13.34;87.84
19553;BME280;9420;50.876;7.012;2023-01-31T02:01:34;102070.28;;;13.23;88.51
19553;BME280;9420;50.876;7.012;2023-01-31T02:04:04;102073.25;;;13.03;89.65
19553;BME280;9420;50.876;7.012;2023-01-31T02:06:33;102061.88;;;13.00;90.04
19553;BME280;9420;50.876;7.012;2023-01-31T02:09:02;102048.81;;;12.92;90.74
19553;BME280;9420;50.876;7.012;2023-01-31T02:11:34;102049.28;;;13.14;89.27
19553;BME280;9420;50.876;7.012;2023-01-31T02:14:06;102054.25;;;12.83;90.14
19553;BME280;9420;50.876;7.012;2023-01-31T02:16:35;102056.22;;;13.21;88.15
19553;BME280;9420;50.876;7.012;2023-01-31T02:19:07;102054.06;;;12.94;90.16
19553;BME280;9420;50.876;7.012;2023-01-31T02:22:08;102056.06;;;12.80;88.08
19553;BME280;9420;50.876;7.012;2023-01-31T02:29:01;102070.44;;;13.14;87.20
19553;BME280;9420;50.876;7.012;2023-01-31T02:32:17;102061.88;;;13.00;88.36
19553;BME280;9420;50.876;7.012;2023-01-31T02:34:58;102057.69;;;14.16;81.41
19553;BME280;9420;50.876;7.012;2023-01-31T02:37:42;102065.47;;;12.96;86.19
19553;BME280;9420;50.876;7.012;2023-01-31T02:40:20;102058.44;;;12.95;87.45
19553;BME280;9420;50.876;7.012;2023-01-31T02:42:59;102046.59;;;13.61;82.19
19553;BME280;9420;50.876;7.012;2023-01-31T02:45:41;102047.56;;;13.11;86.30
19553;BME280;9420;50.876;7.012;2023-01-31T02:48:24;102055.00;;;12.90;86.62
19553;BME280;9420;50.876;7.012;2023-01-31T02:51:03;102040.22;;;12.78;88.05
19553;BME280;9420;50.876;7.012;2023-01-31T02:53:35;102044.44;;;12.90;87.91
19553;BME280;9420;50.876;7.012;2023-01-31T02:56:11;102052.25;;;13.43;85.47
19553;BME280;9420;50.876;7.012;2023-01-31T02:58:51;102050.13;;;13.17;85.33
19553;BME280;9420;50.876;7.012;2023-01-31T03:01:24;102058.53;;;12.90;86.24
19553;BME280;9420;50.876;7.012;2023-01-31T03:03:57;102065.09;;;12.66;88.71
19553;BME280;9420;50.876;7.012;2023-01-31T03:06:51;102062.34;;;12.72;88.14
19553;BME280;9420;50.876;7.012;2023-01-31T03:09:40;102063.81;;;12.89;87.15
19553;BME280;9420;50.876;7.012;2023-01-31T03:12:36;102056.69;;;12.94;86.39
19553;BME280;9420;50.876;7.012;2023-01-31T03:15:26;102050.81;;;13.27;85.00
19553;BME280;9420;50.876;7.012;2023-01-31T03:18:23;102059.03;;;13.12;85.01
19553;BME280;9420;50.876;7.012;2023-01-31T03:20:58;102062.59;;;12.57;87.62
19553;BME280;9420;50.876;7.012;2023-01-31T03:23:30;102057.09;;;12.69;87.69
19553;BME280;9420;50.876;7.012;2023-01-31T03:26:03;102054.38;;;12.74;87.63
19553;BME280;9420;50.876;7.012;2023-01-31T03:28:35;102060.28;;;12.90;86.26
19553;BME280;9420;50.876;7.012;2023-01-31T03:31:10;102053.31;;;12.86;85.44
19553;BME280;9420;50.876;7.012;2023-01-31T03:33:44;102045.09;;;13.01;85.25
19553;BME280;9420;50.876;7.012;2023-01-31T03:36:27;102036.47;;;13.78;80.42
19553;BME280;9420;50.876;7.012;2023-01-31T03:39:07;102044.16;;;12.56;86.22
19553;BME280;9420;50.876;7.012;2023-01-31T03:41:47;102042.75;;;12.86;85.00
19553;BME280;9420;50.876;7.012;2023-01-31T03:44:26;102046.38;;;12.78;85.07
19553;BME280;9420;50.876;7.012;2023-01-31T03:47:02;102037.66;;;12.73;85.77
19553;BME280;9420;50.876;7.012;2023-01-31T03:49:32;102045.31;;;12.38;86.72
19553;BME280;9420;50.876;7.012;2023-01-31T03:52:06;102045.97;;;13.01;83.89
19553;BME280;9420;50.876;7.012;2023-01-31T03:54:39;102039.88;;;13.43;82.83
19553;BME280;9420;50.876;7.012;2023-01-31T03:57:17;102036.84;;;13.63;81.26
19553;BME280;9420;50.876;7.012;2023-01-31T03:59:49;102040.09;;;12.35;85.75
19553;BME280;9420;50.876;7.012;2023-01-31T04:02:24;102047.50;;;13.16;84.40
19553;BME280;9420;50.876;7.012;2023-01-31T04:04:58;102043.41;;;12.46;84.08
19553;BME280;9420;50.876;7.012;2023-01-31T04:07:31;102031.56;;;12.70;85.47
19553;BME280;9420;50.876;7.012;2023-01-31T04:10:01;102038.84;;;12.01;88.41
19553;BME280;9420;50.876;7.012;2023-01-31T04:12:28;102042.00;;;12.24;90.01
19553;BME280;9420;50.876;7.012;2023-01-31T04:14:55;102026.19;;;12.21;89.82
19553;BME280;9420;50.876;7.012;2023-01-31T04:17:23;102039.34;;;12.27;87.99
19553;BME280;9420;50.876;7.012;2023-01-31T04:19:50;102030.88;;;12.60;87.29
19553;BME280;9420;50.876;7.012;2023-01-31T04:22:17;102025.00;;;12.91;85.82
19553;BME280;9420;50.876;7.012;2023-01-31T04:24:45;102021.91;;;12.67;85.19
19553;BME280;9420;50.876;7.012;2023-01-31T04:27:13;102017.56;;;12.63;86.42
19553;BME280;9420;50.876;7.012;2023-01-31T04:29:39;102014.03;;;13.15;83.61
19553;BME280;9420;50.876;7.012;2023-01-31T04:32:06;102018.69;;;13.45;81.32
19553;BME280;9420;50.876;7.012;2023-01-31T04:34:33;102012.19;;;12.69;83.29
19553;BME280;9420;50.876;7.012;2023-01-31T04:37:01;102010.16;;;13.31;82.55
19553;BME280;9420;50.876;7.012;2023-01-31T04:39:28;102012.72;;;12.90;82.82
19553;BME280;9420;50.876;7.012;2023-01-31T04:41:56;102012.09;;;12.74;84.67
19553;BME280;9420;50.876;7.012;2023-01-31T04:44:23;102010.59;;;12.59;86.31
19553;BME280;9420;50.876;7.012;2023-01-31T04:46:50;102004.91;;;12.84;86.81
19553;BME280;9420;50.876;7.012;2023-01-31T04:49:18;101999.81;;;12.71;87.74
19553;BME280;9420;50.876;7.012;2023-01-31T04:51:45;102000.00;;;13.10;86.36
19553;BME280;9420;50.876;7.012;2023-01-31T04:54:12;102004.34;;;13.14;84.93
19553;BME280;9420;50.876;7.012;2023-01-31T04:56:39;101996.44;;;13.55;84.88
19553;BME280;9420;50.876;7.012;2023-01-31T04:59:07;101999.31;;;13.43;84.96
19553;BME280;9420;50.876;7.012;2023-01-31T05:01:37;101995.72;;;13.01;85.82
19553;BME280;9420;50.876;7.012;2023-01-31T05:04:06;101999.75;;;13.22;85.79
19553;BME280;9420;50.876;7.012;2023-01-31T05:06:33;102006.53;;;12.40;85.71
19553;BME280;9420;50.876;7.012;2023-01-31T05:09:00;101987.94;;;12.95;86.63
19553;BME280;9420;50.876;7.012;2023-01-31T05:11:27;101987.97;;;12.94;85.31
19553;BME280;9420;50.876;7.012;2023-01-31T05:13:55;102007.66;;;12.77;86.00
19553;BME280;9420;50.876;7.012;2023-01-31T05:16:23;101997.22;;;12.70;85.86
19553;BME280;9420;50.876;7.012;2023-01-31T05:18:50;101987.25;;;12.35;86.77
19553;BME280;9420;50.876;7.012;2023-01-31T05:21:17;101988.88;;;12.42;86.54
19553;BME280;9420;50.876;7.012;2023-01-31T05:23:44;101988.97;;;12.39;87.48
19553;BME280;9420;50.876;7.012;2023-01-31T05:26:11;101993.03;;;11.41;92.09
19553;BME280;9420;50.876;7.012;2023-01-31T05:28:38;101990.53;;;11.31;94.43
19553;BME280;9420;50.876;7.012;2023-01-31T05:31:07;101992.69;;;11.65;93.34
19553;BME280;9420;50.876;7.012;2023-01-31T05:33:36;101988.66;;;11.39;93.67
19553;BME280;9420;50.876;7.012;2023-01-31T05:36:04;101992.38;;;11.21;95.08
19553;BME280;9420;50.876;7.012;2023-01-31T05:38:31;101985.94;;;11.45;95.76
19553;BME280;9420;50.876;7.012;2023-01-31T05:40:58;101986.69;;;11.56;94.64
19553;BME280;9420;50.876;7.012;2023-01-31T05:43:25;101996.22;;;11.67;94.74
19553;BME280;9420;50.876;7.012;2023-01-31T05:45:52;101995.53;;;11.52;95.17
19553;BME280;9420;50.876;7.012;2023-01-31T05:48:19;101992.69;;;11.67;95.13
19553;BME280;9420;50.876;7.012;2023-01-31T05:50:49;101984.34;;;11.97;95.65
19553;BME280;9420;50.876;7.012;2023-01-31T05:53:16;101994.50;;;10.90;100.00
19553;BME280;9420;50.876;7.012;2023-01-31T05:55:44;101993.13;;;11.34;100.00
19553;BME280;9420;50.876;7.012;2023-01-31T05:58:11;101997.66;;;11.23;100.00
19553;BME280;9420;50.876;7.012;2023-01-31T06:00:38;101990.63;;;11.88;99.88
19553;BME280;9420;50.876;7.012;2023-01-31T06:03:05;101996.19;;;11.69;100.00
19553;BME280;9420;50.876;7.012;2023-01-31T06:05:32;101989.81;;;11.18;100.00
19553;BME280;9420;50.876;7.012;2023-01-31T06:08:00;101993.50;;;11.75;100.00
19553;BME280;9420;50.876;7.012;2023-01-31T06:10:27;101988.28;;;11.69;100.00
19553;BME280;9420;50.876;7.012;2023-01-31T06:12:54;101986.16;;;11.28;100.00
19553;BME280;9420;50.876;7.012;2023-01-31T06:15:21;101978.13;;;11.39;100.00
19553;BME280;9420;50.876;7.012;2023-01-31T06:17:49;101986.88;;;11.41;100.00
19553;BME280;9420;50.876;7.012;2023-01-31T06:20:16;101983.56;;;11.90;98.81
19553;BME280;9420;50.876;7.012;2023-01-31T06:22:43;101977.66;;;12.30;96.65
19553;BME280;9420;50.876;7.012;2023-01-31T06:25:12;101971.59;;;12.23;95.90
19553;BME280;9420;50.876;7.012;2023-01-31T06:27:39;101979.38;;;11.79;97.53
19553;BME280;9420;50.876;7.012;2023-01-31T06:30:08;101970.72;;;11.65;98.16
19553;BME280;9420;50.876;7.012;2023-01-31T06:32:36;101966.50;;;12.14;95.82
19553;BME280;9420;50.876;7.012;2023-01-31T06:35:04;101953.53;;;11.37;100.00
19553;BME280;9420;50.876;7.012;2023-01-31T06:37:31;101955.69;;;11.04;100.00
19553;BME280;9420;50.876;7.012;2023-01-31T06:39:59;101955.44;;;11.26;100.00
19553;BME280;9420;50.876;7.012;2023-01-31T06:42:27;101960.16;;;11.68;100.00
19553;BME280;9420;50.876;7.012;2023-01-31T06:44:54;101949.38;;;11.83;99.80
19553;BME280;9420;50.876;7.012;2023-01-31T06:47:21;101952.81;;;11.88;99.91
19553;BME280;9420;50.876;7.012;2023-01-31T06:49:48;101941.41;;;11.86;99.93
19553;BME280;9420;50.876;7.012;2023-01-31T06:52:15;101945.81;;;11.87;99.11
19553;BME280;9420;50.876;7.012;2023-01-31T06:54:42;101956.59;;;11.72;100.00
19553;BME280;9420;50.876;7.012;2023-01-31T06:57:09;101954.44;;;12.50;95.24
19553;BME280;9420;50.876;7.012;2023-01-31T06:59:42;101964.63;;;12.19;96.94
19553;BME280;9420;50.876;7.012;2023-01-31T07:02:10;101961.34;;;12.05;97.71
19553;BME280;9420;50.876;7.012;2023-01-31T07:04:37;101969.16;;;11.52;100.00
19553;BME280;9420;50.876;7.012;2023-01-31T07:07:04;101966.13;;;12.35;97.60
19553;BME280;9420;50.876;7.012;2023-01-31T07:09:31;101966.94;;;12.88;94.35
19553;BME280;9420;50.876;7.012;2023-01-31T07:11:58;101974.91;;;12.85;92.11
19553;BME280;9420;50.876;7.012;2023-01-31T07:14:25;101972.81;;;13.46;88.63
19553;BME280;9420;50.876;7.012;2023-01-31T07:16:54;101963.59;;;13.64;86.95
19553;BME280;9420;50.876;7.012;2023-01-31T07:19:21;101962.28;;;13.43;88.50
19553;BME280;9420;50.876;7.012;2023-01-31T07:21:48;101971.19;;;13.39;89.05
19553;BME280;9420;50.876;7.012;2023-01-31T07:24:15;101969.00;;;13.59;87.33
19553;BME280;9420;50.876;7.012;2023-01-31T07:26:42;101975.09;;;12.74;89.36
19553;BME280;9420;50.876;7.012;2023-01-31T07:29:09;101967.06;;;12.80;90.67
19553;BME280;9420;50.876;7.012;2023-01-31T07:31:37;101962.28;;;14.19;84.18
19553;BME280;9420;50.876;7.012;2023-01-31T07:34:05;101986.22;;;13.37;87.89
19553;BME280;9420;50.876;7.012;2023-01-31T07:36:32;101994.63;;;12.65;90.21
19553;BME280;9420;50.876;7.012;2023-01-31T07:38:59;101984.63;;;14.77;79.74
19553;BME280;9420;50.876;7.012;2023-01-31T07:41:26;101972.19;;;15.43;76.48
19553;BME280;9420;50.876;7.012;2023-01-31T07:43:53;101982.81;;;15.11;74.33
19553;BME280;9420;50.876;7.012;2023-01-31T07:46:20;101990.31;;;13.53;83.67
19553;BME280;9420;50.876;7.012;2023-01-31T07:48:47;101970.66;;;13.23;86.40
19553;BME280;9420;50.876;7.012;2023-01-31T07:51:16;101968.09;;;13.60;84.84
19553;BME280;9420;50.876;7.012;2023-01-31T07:53:43;101975.56;;;13.41;85.23
19553;BME280;9420;50.876;7.012;2023-01-31T07:56:13;101951.09;;;13.30;85.34
19553;BME280;9420;50.876;7.012;2023-01-31T07:58:43;101947.63;;;12.83;86.33
19553;BME280;9420;50.876;7.012;2023-01-31T08:01:14;101952.09;;;13.25;87.20
19553;BME280;9420;50.876;7.012;2023-01-31T08:03:59;101940.22;;;12.55;88.35
19553;BME280;9420;50.876;7.012;2023-01-31T08:06:29;101929.09;;;12.84;88.00
19553;BME280;9420;50.876;7.012;2023-01-31T08:08:58;101929.09;;;14.03;82.77
19553;BME280;9420;50.876;7.012;2023-01-31T08:11:26;101937.97;;;13.26;84.50
19553;BME280;9420;50.876;7.012;2023-01-31T08:13:53;101929.94;;;12.88;85.09
19553;BME280;9420;50.876;7.012;2023-01-31T08:16:21;101936.78;;;12.98;83.90
19553;BME280;9420;50.876;7.012;2023-01-31T08:18:51;101948.66;;;13.20;85.08
19553;BME280;9420;50.876;7.012;2023-01-31T08:21:19;101955.63;;;13.24;85.21
19553;BME280;9420;50.876;7.012;2023-01-31T08:23:48;101955.06;;;13.10;85.74
19553;BME280;9420;50.876;7.012;2023-01-31T08:26:18;101946.75;;;14.04;81.78
19553;BME280;9420;50.876;7.012;2023-01-31T08:28:47;101949.41;;;13.66;82.78
19553;BME280;9420;50.876;7.012;2023-01-31T08:31:17;101952.16;;;13.62;83.69
19553;BME280;9420;50.876;7.012;2023-01-31T08:33:45;101940.31;;;14.14;79.95
19553;BME280;9420;50.876;7.012;2023-01-31T08:36:17;101950.91;;;12.95;83.30
19553;BME280;9420;50.876;7.012;2023-01-31T08:38:47;101933.88;;;13.89;80.28
19553;BME280;9420;50.876;7.012;2023-01-31T08:41:16;101915.25;;;14.29;78.81
19553;BME280;9420;50.876;7.012;2023-01-31T08:43:44;101927.00;;;13.81;80.31
19553;BME280;9420;50.876;7.012;2023-01-31T08:46:11;101934.44;;;13.27;81.59
19553;BME280;9420;50.876;7.012;2023-01-31T08:48:38;101924.94;;;13.95;79.97
19553;BME280;9420;50.876;7.012;2023-01-31T08:51:10;101927.41;;;13.64;79.86
19553;BME280;9420;50.876;7.012;2023-01-31T08:53:39;101932.75;;;13.23;82.75
19553;BME280;9420;50.876;7.012;2023-01-31T08:56:08;101929.34;;;13.94;80.04
19553;BME280;9420;50.876;7.012;2023-01-31T08:58:38;101924.34;;;13.82;80.63
19553;BME280;9420;50.876;7.012;2023-01-31T09:01:08;101931.59;;;14.11;78.85
19553;BME280;9420;50.876;7.012;2023-01-31T09:03:35;101932.00;;;13.56;80.89
19553;BME280;9420;50.876;7.012;2023-01-31T09:06:07;101933.88;;;13.51;81.41
19553;BME280;9420;50.876;7.012;2023-01-31T09:08:35;101923.38;;;13.85;81.47
19553;BME280;9420;50.876;7.012;2023-01-31T09:11:02;101915.47;;;14.18;80.99
19553;BME280;9420;50.876;7.012;2023-01-31T09:13:32;101932.69;;;13.64;82.07
19553;BME280;9420;50.876;7.012;2023-01-31T09:16:01;101905.38;;;14.36;80.41
19553;BME280;9420;50.876;7.012;2023-01-31T09:18:29;101911.84;;;13.87;81.64
19553;BME280;9420;50.876;7.012;2023-01-31T09:21:03;101896.41;;;14.40;81.53
19553;BME280;9420;50.876;7.012;2023-01-31T09:23:30;101915.25;;;14.29;83.02
19553;BME280;9420;50.876;7.012;2023-01-31T09:25:57;101913.47;;;13.94;83.61
19553;BME280;9420;50.876;7.012;2023-01-31T09:28:25;101895.56;;;14.04;82.63
19553;BME280;9420;50.876;7.012;2023-01-31T09:30:54;101894.50;;;14.11;82.81
19553;BME280;9420;50.876;7.012;2023-01-31T09:33:22;101889.53;;;13.97;83.78
19553;BME280;9420;50.876;7.012;2023-01-31T09:35:56;101906.00;;;13.75;85.69
19553;BME280;9420;50.876;7.012;2023-01-31T09:38:23;101889.31;;;13.71;87.23
19553;BME280;9420;50.876;7.012;2023-01-31T09:40:52;101898.72;;;13.46;88.16
19553;BME280;9420;50.876;7.012;2023-01-31T09:43:25;101891.19;;;13.66;88.75
19553;BME280;9420;50.876;7.012;2023-01-31T09:46:20;101881.16;;;14.15;87.42
19553;BME280;9420;50.876;7.012;2023-01-31T09:48:54;101880.69;;;13.63;89.98
19553;BME280;9420;50.876;7.012;2023-01-31T09:51:23;101885.59;;;13.78;92.44
19553;BME280;9420;50.876;7.012;2023-01-31T09:53:50;101889.56;;;14.32;91.43
19553;BME280;9420;50.876;7.012;2023-01-31T09:56:31;101884.50;;;13.87;91.31
19553;BME280;9420;50.876;7.012;2023-01-31T09:59:11;101881.44;;;14.03;90.77
19553;BME280;9420;50.876;7.012;2023-01-31T10:01:54;101869.13;;;14.02;90.02
19553;BME280;9420;50.876;7.012;2023-01-31T10:04:51;101861.06;;;14.41;89.85
19553;BME280;9420;50.876;7.012;2023-01-31T10:07:28;101858.31;;;14.11;89.28
19553;BME280;9420;50.876;7.012;2023-01-31T10:10:03;101868.09;;;14.08;90.44
19553;BME280;9420;50.876;7.012;2023-01-31T10:12:44;101870.44;;;13.85;90.86
19553;BME280;9420;50.876;7.012;2023-01-31T10:15:21;101872.22;;;14.19;92.57
19553;BME280;9420;50.876;7.012;2023-01-31T10:17:58;101866.38;;;14.71;89.08
19553;BME280;9420;50.876;7.012;2023-01-31T10:20:35;101861.44;;;14.25;90.72
19553;BME280;9420;50.876;7.012;2023-01-31T10:23:11;101846.13;;;14.04;92.96
19553;BME280;9420;50.876;7.012;2023-01-31T10:25:47;101842.63;;;14.02;91.91
19553;BME280;9420;50.876;7.012;2023-01-31T10:28:22;101845.56;;;14.25;90.92
19553;BME280;9420;50.876;7.012;2023-01-31T10:30:58;101845.25;;;14.04;91.38
19553;BME280;9420;50.876;7.012;2023-01-31T10:33:40;101850.47;;;14.41;91.21
19553;BME280;9420;50.876;7.012;2023-01-31T10:36:17;101847.59;;;13.82;93.55
19553;BME280;9420;50.876;7.012;2023-01-31T10:38:58;101825.09;;;13.98;94.24
19553;BME280;9420;50.876;7.012;2023-01-31T10:41:42;101839.78;;;14.10;92.21
19553;BME280;9420;50.876;7.012;2023-01-31T10:44:21;101823.09;;;14.71;89.14
19553;BME280;9420;50.876;7.012;2023-01-31T10:46:52;101807.75;;;14.19;92.02
19553;BME280;9420;50.876;7.012;2023-01-31T10:49:25;101810.47;;;14.17;91.52
19553;BME280;9420;50.876;7.012;2023-01-31T10:52:14;101798.78;;;14.24;92.67
19553;BME280;9420;50.876;7.012;2023-01-31T10:54:54;101804.78;;;13.65;94.14
19553;BME280;9420;50.876;7.012;2023-01-31T10:57:26;101807.66;;;14.56;91.55
19553;BME280;9420;50.876;7.012;2023-01-31T10:59:53;101806.88;;;14.18;90.95
19553;BME280;9420;50.876;7.012;2023-01-31T11:02:24;101796.38;;;14.49;91.52
19553;BME280;9420;50.876;7.012;2023-01-31T11:04:56;101772.63;;;14.45;90.85
19553;BME280;9420;50.876;7.012;2023-01-31T11:07:28;101772.16;;;14.30;92.47
19553;BME280;9420;50.876;7.012;2023-01-31T11:09:55;101768.91;;;14.19;94.04
19553;BME280;9420;50.876;7.012;2023-01-31T11:12:41;101762.59;;;14.85;91.27
19553;BME280;9420;50.876;7.012;2023-01-31T11:15:17;101747.53;;;15.13;88.93
19553;BME280;9420;50.876;7.012;2023-01-31T11:17:46;101744.88;;;14.58;91.75
19553;BME280;9420;50.876;7.012;2023-01-31T11:20:30;101738.88;;;15.62;86.17
19553;BME280;9420;50.876;7.012;2023-01-31T11:23:00;101743.06;;;14.58;89.43
19553;BME280;9420;50.876;7.012;2023-01-31T11:25:30;101739.38;;;14.35;89.82
19553;BME280;9420;50.876;7.012;2023-01-31T11:28:02;101723.97;;;14.76;89.25
19553;BME280;9420;50.876;7.012;2023-01-31T11:30:33;101720.66;;;14.39;89.58
19553;BME280;9420;50.876;7.012;2023-01-31T11:33:01;101714.91;;;15.37;87.18
19553;BME280;9420;50.876;7.012;2023-01-31T11:35:31;101712.41;;;15.33;86.66
19553;BME280;9420;50.876;7.012;2023-01-31T11:38:02;101712.25;;;15.63;86.01
19553;BME280;9420;50.876;7.012;2023-01-31T11:40:32;101703.19;;;14.90;87.34
19553;BME280;9420;50.876;7.012;2023-01-31T11:43:03;101705.03;;;15.14;88.89
19553;BME280;9420;50.876;7.012;2023-01-31T11:45:32;101706.19;;;14.80;90.09
19553;BME280;9420;50.876;7.012;2023-01-31T11:48:07;101700.84;;;15.35;87.39
19553;BME280;9420;50.876;7.012;2023-01-31T11:50:41;101703.94;;;14.94;88.15
19553;BME280;9420;50.876;7.012;2023-01-31T11:53:20;101689.13;;;15.14;88.80
19553;BME280;9420;50.876;7.012;2023-01-31T11:55:50;101690.09;;;15.38;87.28
19553;BME280;9420;50.876;7.012;2023-01-31T11:58:22;101694.00;;;15.28;87.47
19553;BME280;9420;50.876;7.012;2023-01-31T12:00:55;101676.84;;;15.64;86.21
19553;BME280;9420;50.876;7.012;2023-01-31T12:03:25;101674.63;;;14.98;87.05
19553;BME280;9420;50.876;7.012;2023-01-31T12:06:01;101671.19;;;15.49;85.58
19553;BME280;9420;50.876;7.012;2023-01-31T12:08:33;101674.28;;;15.61;84.13
19553;BME280;9420;50.876;7.012;2023-01-31T12:11:04;101669.78;;;15.63;83.96
19553;BME280;9420;50.876;7.012;2023-01-31T12:13:46;101667.41;;;15.80;82.85
19553;BME280;9420;50.876;7.012;2023-01-31T12:16:18;101668.78;;;15.41;83.90
19553;BME280;9420;50.876;7.012;2023-01-31T12:19:02;101663.28;;;14.95;87.56
19553;BME280;9420;50.876;7.012;2023-01-31T12:21:48;101657.06;;;15.22;86.42
19553;BME280;9420;50.876;7.012;2023-01-31T12:24:43;101659.09;;;15.14;86.98
19553;BME280;9420;50.876;7.012;2023-01-31T12:27:35;101649.69;;;15.30;87.51
19553;BME280;9420;50.876;7.012;2023-01-31T12:34:05;101651.81;;;15.21;87.95
19553;BME280;9420;50.876;7.012;2023-01-31T12:36:56;101657.66;;;15.04;89.79
19553;BME280;9420;50.876;7.012;2023-01-31T12:39:50;101670.91;;;15.30;89.21
19553;BME280;9420;50.876;7.012;2023-01-31T12:42:39;101659.88;;;15.42;89.93
19553;BME280;9420;50.876;7.012;2023-01-31T12:45:26;101655.84;;;15.57;89.19
19553;BME280;9420;50.876;7.012;2023-01-31T12:51:27;101658.31;;;15.87;88.97
19553;BME280;9420;50.876;7.012;2023-01-31T12:54:18;101665.09;;;14.38;97.96
19553;BME280;9420;50.876;7.012;2023-01-31T12:57:14;101648.16;;;15.23;96.21
19553;BME280;9420;50.876;7.012;2023-01-31T12:59:53;101631.63;;;15.90;93.51
19553;BME280;9420;50.876;7.012;2023-01-31T13:02:41;101634.53;;;15.34;95.35
19553;BME280;9420;50.876;7.012;2023-01-31T13:05:24;101638.16;;;15.57;95.40
19553;BME280;9420;50.876;7.012;2023-01-31T13:07:57;101634.59;;;15.06;99.77
19553;BME280;9420;50.876;7.012;2023-01-31T13:10:36;101618.09;;;15.73;97.02
19553;BME280;9420;50.876;7.012;2023-01-31T13:13:17;101613.34;;;16.05;96.13
19553;BME280;9420;50.876;7.012;2023-01-31T13:15:50;101619.69;;;15.28;98.10
19553;BME280;9420;50.876;7.012;2023-01-31T13:18:21;101633.38;;;14.90;100.00
19553;BME280;9420;50.876;7.012;2023-01-31T13:20:55;101646.66;;;15.16;99.49
19553;BME280;9420;50.876;7.012;2023-01-31T13:23:28;101634.00;;;15.24;99.56
19553;BME280;9420;50.876;7.012;2023-01-31T13:26:07;101640.53;;;15.14;98.27
19553;BME280;9420;50.876;7.012;2023-01-31T13:28:42;101639.81;;;15.35;99.91
19553;BME280;9420;50.876;7.012;2023-01-31T13:31:19;101640.63;;;15.11;100.00
19553;BME280;9420;50.876;7.012;2023-01-31T13:33:56;101630.03;;;14.85;100.00
19553;BME280;9420;50.876;7.012;2023-01-31T13:36:31;101642.63;;;14.77;100.00
19553;BME280;9420;50.876;7.012;2023-01-31T13:39:07;101654.69;;;14.31;100.00